Manitou Springs, CO (80829)

3:38 PM MDT on May 06, 2015 (GMT -0600)
Mesa over Pleasant Valley | | Change Station
CLOSE
Current Station
Personal Weather Station
Location: Colorado Springs, CO
Elevation: 6289 ft
Nearby Weather Stations
Active Advisory: Special Statement

Elev 6289 ft 38.85 °N, 104.86 °W | Updated 53 minutes ago

Thunderstorm
Thunderstorm
62.4 °F
Feels Like 62.4 °F
N
2.0
Wind Variable Wind from SSW
Gusts 2.0 mph

Today
High -- | Low -- °F
--% Chance of Precip.
Yesterday
High -- | Low -- °F
Precip. -- in
5:56 AM 7:56 PM
Waning Gibbous, 92% visible
Pressure 29.61 in
Visibility 10.0 miles
Clouds Few 9000 ft
Dew Point 51 °F
Humidity 66%
Rainfall 0.00 in
Snow Depth Not available.
UV 9 out of 12
Pollen 7.10 out of 12
Air Quality Not available.
Flu Activity Sporadic
METAR KAFF 062058Z AUTO 06011KT 10SM FEW090 12/09 A2974 RMK AO2 LTG DSNT N-SE AND W RAE01 TSE23 SLP025 P0000 60012 T01190090 55001

More Conditions Fewer Conditions

Pressure 29.61 in
Visibility 10.0 miles
Clouds Few 9000 ft
Dew Point 51 °F
Humidity 66%
Rainfall 0.00 in
Snow Depth Not available.
UV 9 out of 12
Pollen 7.10 out of 12
Air Quality Not available.
Flu Activity Sporadic
METAR KAFF 062058Z AUTO 06011KT 10SM FEW090 12/09 A2974 RMK AO2 LTG DSNT N-SE AND W RAE01 TSE23 SLP025 P0000 60012 T01190090 55001

More Conditions Fewer Conditions

10-Day Weather Forecast

Almanac

Astronomy

May. 06, 2015 Rise Set
Actual Time
Civil Twilight
Nautical Twilight
Astronomical Twilight
Moon
Length of Visible Light
Length of Day
Tomorrow will be .
, % of the Moon is Illuminated

Today's Extremes

State Highs State Lows

Community

WunderPhotos

Upload Photos

1,819,022 photos uploaded!

WunderBlogs® & News

Nearby

Air Quality

  Air Quality AQ Index Pollutant
Not available.

Snow Depth

Station Depth Elevation

Earthquake Activity

City Distance Mag. Time & Date
Minimum magnitude displayed is 2.5.

Coastal Water Temperatures

Place Temperature

Stations

Nearby Weather Stations

Station Location Temp. Windchill Dew Point Humidity Wind Precip. Elev Updated Type
                   
Special Statement
Statement as of 3:17 PM MDT on May 06, 2015

... Significant weather advisory for southeastern El Paso County until
345 PM MDT...

At 314 PM MDT... National Weather Service Doppler radar indicated a
line of strong thunderstorms extending from Yoder to near Schriever
AFB... and moving east at 30 mph.

Half inch hail and wind gusts up to 50 mph will be possible with
these storms.

Locations impacted include...
southeastern Colorado Springs... Fountain... rush... Ellicott...
Schriever AFB... security-Widefield... security... Yoder and stratmoor.

Precautionary/preparedness actions...

Torrential rainfall is also occurring with these storms... and may
lead to minor flooding.


Lat... Lon 3877 10405 3864 10463 3865 10465 3878 10477
      3890 10420 3891 10406
time... Mot... loc 2114z 261deg 52kt 3885 10421 3875 10456


Tlm